Time;durP1;ratioP1;P1;durP2;ratioP2;P2;SDS_P1;SDS_P2;PMS_P1;PMS_P2;Temp;Humidity;BMP_temperature;BMP_pressure;BME280_temperature;BME280_humidity;BME280_pressure;Samples;Min_cycle;Max_cycle;Signal;HPM_P1;HPM_P2
2021/11/01 00:01:46;;;;;;;35.10;22.90;;;2.60;99.90;1.80;96218.00;;;;5127120;27;20439;-61
2021/11/01 00:04:37;;;;;;;32.00;21.30;;;2.50;99.90;2.00;96214.00;;;;5108342;28;20427;-61
2021/11/01 00:07:26;;;;;;;30.43;21.47;;;2.50;99.90;1.80;96212.00;;;;5108784;28;20420;-58
2021/11/01 00:10:15;;;;;;;26.77;20.20;;;2.60;99.90;1.80;96212.00;;;;5114738;27;21245;-59
2021/11/01 00:13:05;;;;;;;30.63;19.77;;;2.50;99.90;1.80;96199.00;;;;5107819;28;20472;-64
2021/11/01 00:15:54;;;;;;;32.43;22.10;;;2.50;99.90;1.90;96201.00;;;;5113557;27;20945;-59
2021/11/01 00:18:43;;;;;;;36.70;21.70;;;2.50;99.90;1.90;96192.00;;;;5122701;27;20428;-62
2021/11/01 00:21:33;;;;;;;32.47;22.53;;;3.20;99.90;2.00;96196.00;;;;5106288;28;20445;-63
2021/11/01 00:24:24;;;;;;;31.07;20.87;;;2.50;99.90;1.80;96185.00;;;;5109701;27;20427;-60
2021/11/01 00:27:13;;;;;;;25.97;19.37;;;2.40;99.90;1.50;96176.00;;;;5111006;27;20827;-59
2021/11/01 00:30:02;;;;;;;31.27;19.33;;;2.40;99.90;1.40;96179.00;;;;5119229;27;20869;-64
2021/11/01 00:32:51;;;;;;;26.60;18.87;;;2.30;99.90;1.30;96174.00;;;;5127364;27;20463;-59
2021/11/01 00:35:40;;;;;;;27.63;17.53;;;2.10;99.90;1.10;96164.00;;;;5126681;27;20427;-64
2021/11/01 00:38:30;;;;;;;32.13;21.50;;;2.00;99.90;1.30;96172.00;;;;5114588;27;20424;-61
2021/11/01 00:41:19;;;;;;;28.90;20.10;;;1.90;99.90;1.60;96176.00;;;;5107342;27;20978;-62
2021/11/01 00:44:08;;;;;;;32.93;21.50;;;2.00;99.90;1.30;96170.00;;;;5121285;27;20458;-64
2021/11/01 00:46:58;;;;;;;29.73;20.23;;;2.00;99.90;1.30;96172.00;;;;5115203;27;20433;-57
2021/11/01 00:49:47;;;;;;;27.43;19.53;;;2.00;99.90;1.10;96163.00;;;;5106898;28;20408;-62
2021/11/01 00:52:36;;;;;;;32.37;21.20;;;1.90;99.90;1.30;96167.00;;;;5117404;27;20494;-60
2021/11/01 00:55:34;;;;;;;31.57;20.60;;;2.00;99.90;1.30;96165.00;;;;5116373;27;20413;-61
2021/11/01 00:58:24;;;;;;;36.57;23.57;;;2.00;99.90;1.30;96150.00;;;;5109117;27;20460;-65
2021/11/01 01:01:16;;;;;;;33.93;22.60;;;1.90;99.90;1.40;96154.00;;;;5105607;28;20445;-60
2021/11/01 01:04:05;;;;;;;31.67;21.00;;;2.00;99.90;1.40;96152.00;;;;5107415;28;20435;-62
2021/11/01 01:06:54;;;;;;;31.00;21.03;;;2.00;99.90;1.40;96146.00;;;;5106375;28;20436;-58
2021/11/01 01:09:43;;;;;;;33.67;21.60;;;2.10;99.90;1.60;96140.00;;;;5107250;28;20619;-61
2021/11/01 01:12:33;;;;;;;31.47;21.63;;;2.10;99.90;1.40;96147.00;;;;5106552;28;20448;-59
2021/11/01 01:15:24;;;;;;;34.70;23.00;;;2.10;99.90;1.40;96138.00;;;;5107319;27;20454;-60
2021/11/01 01:18:17;;;;;;;35.13;22.23;;;2.10;99.90;1.10;96133.00;;;;5116925;27;20425;-64
2021/11/01 01:24:13;;;;;;;37.60;23.43;;;2.00;99.90;0.90;96132.00;;;;5108606;27;20459;-63
2021/11/01 01:27:03;;;;;;;32.97;21.50;;;1.90;99.90;0.90;96123.00;;;;5114050;27;20435;-64
2021/11/01 01:29:53;;;;;;;33.67;22.67;;;1.80;99.90;0.80;96117.00;;;;5106812;27;20810;-64
2021/11/01 01:32:43;;;;;;;28.70;19.90;;;1.60;99.90;1.10;96110.00;;;;5106322;28;20449;-60
2021/11/01 01:35:34;;;;;;;31.03;20.53;;;1.70;99.90;0.90;96099.00;;;;5106179;28;20417;-59
2021/11/01 01:38:23;;;;;;;32.93;21.03;;;1.70;99.90;0.40;96103.00;;;;5109325;27;20439;-62
2021/11/01 01:41:14;;;;;;;31.87;22.33;;;1.50;99.90;0.60;96092.00;;;;5107834;27;20451;-63
2021/11/01 01:44:04;;;;;;;30.60;20.73;;;1.40;99.90;0.60;96092.00;;;;5118115;27;20431;-63
2021/11/01 01:46:55;;;;;;;35.73;22.07;;;1.40;99.90;0.70;96092.00;;;;5112882;27;20439;-62
2021/11/01 01:49:44;;;;;;;33.80;21.83;;;1.40;99.90;0.70;96080.00;;;;5107713;28;20433;-61
2021/11/01 01:52:33;;;;;;;29.97;20.70;;;1.40;99.90;0.60;96079.00;;;;5106801;27;20463;-62
2021/11/01 01:55:22;;;;;;;32.63;21.10;;;1.40;99.90;0.80;96081.00;;;;5105777;27;20413;-61
2021/11/01 01:58:11;;;;;;;40.33;21.90;;;1.40;99.90;0.90;96065.00;;;;5107345;27;20431;-59
2021/11/01 02:01:08;;;;;;;36.13;23.03;;;1.50;99.90;1.00;96068.00;;;;5106175;27;20432;-60
2021/11/01 02:03:58;;;;;;;32.57;22.13;;;1.60;99.90;1.00;96067.00;;;;5106146;28;20428;-62
2021/11/01 02:07:07;;;;;;;30.10;20.97;;;1.60;99.90;1.10;96067.00;;;;5105369;28;20428;-63
2021/11/01 02:10:03;;;;;;;29.23;19.77;;;1.70;99.90;0.70;96061.00;;;;5105496;28;20428;-59
2021/11/01 02:12:57;;;;;;;33.80;21.43;;;1.70;99.90;0.70;96047.00;;;;5106813;28;20966;-59
2021/11/01 02:15:51;;;;;;;29.77;21.73;;;1.60;99.90;0.90;96063.00;;;;5110426;27;20424;-57
2021/11/01 02:18:45;;;;;;;30.50;21.37;;;1.50;99.90;1.10;96055.00;;;;5111355;27;20424;-61
2021/11/01 02:21:50;;;;;;;31.37;22.07;;;1.60;99.90;0.60;96052.00;;;;5105986;28;20452;-59
2021/11/01 02:24:50;;;;;;;33.27;22.13;;;1.60;99.90;0.70;96036.00;;;;5111468;27;21275;-60
2021/11/01 02:27:43;;;;;;;25.97;18.90;;;1.50;99.90;0.60;96040.00;;;;5120108;27;20795;-58
2021/11/01 02:30:56;;;;;;;29.87;20.80;;;1.50;99.90;0.50;96031.00;;;;5106094;27;20420;-60
2021/11/01 02:33:47;;;;;;;31.90;21.47;;;1.40;99.90;0.60;96026.00;;;;5105858;28;20468;-63
2021/11/01 02:36:36;;;;;;;32.10;20.57;;;1.30;99.90;0.60;96020.00;;;;5106437;28;20424;-60
2021/11/01 02:39:26;;;;;;;35.80;22.80;;;1.30;99.90;0.40;96034.00;;;;5112122;27;20831;-63
2021/11/01 02:42:17;;;;;;;32.93;21.63;;;1.30;99.90;0.50;96024.00;;;;5109084;27;20452;-58
2021/11/01 02:45:12;;;;;;;30.33;18.73;;;1.20;99.90;0.20;96021.00;;;;5104573;28;20485;-63
2021/11/01 02:48:01;;;;;;;33.27;20.73;;;0.70;99.90;0.40;96007.00;;;;5106465;28;20452;-62
2021/11/01 02:50:51;;;;;;;31.20;21.83;;;1.20;99.90;0.40;96021.00;;;;5118140;27;20424;-58
2021/11/01 02:53:39;;;;;;;32.20;21.07;;;1.20;99.90;0.60;96014.00;;;;5105865;28;20452;-62
2021/11/01 02:56:29;;;;;;;33.57;22.23;;;1.20;99.90;0.70;96005.00;;;;5105059;28;20434;-60
2021/11/01 02:59:18;;;;;;;34.33;21.13;;;1.20;99.90;0.40;95999.00;;;;5104437;28;20420;-58
2021/11/01 03:02:09;;;;;;;27.60;19.87;;;1.20;99.90;0.50;95997.00;;;;5102676;28;20440;-62
2021/11/01 03:04:58;;;;;;;30.83;20.53;;;1.30;99.90;0.60;95986.00;;;;5104757;28;20903;-61
2021/11/01 03:07:50;;;;;;;34.37;21.80;;;1.30;99.90;0.60;95985.00;;;;5107638;28;20413;-59
2021/11/01 03:10:40;;;;;;;35.10;21.37;;;1.30;99.90;0.60;95982.00;;;;5108220;28;20424;-62
2021/11/01 03:13:35;;;;;;;32.60;21.50;;;1.30;99.90;0.70;95986.00;;;;5109323;28;20452;-64
2021/11/01 03:16:24;;;;;;;34.20;21.93;;;1.30;99.90;0.50;95986.00;;;;5117907;27;20424;-61
2021/11/01 03:19:23;;;;;;;33.47;21.40;;;1.30;99.90;0.60;95983.00;;;;5110045;27;20439;-61
2021/11/01 03:22:13;;;;;;;33.43;21.23;;;1.30;99.90;0.70;95979.00;;;;5093591;28;20579;-59
2021/11/01 03:25:12;;;;;;;32.37;22.20;;;1.30;99.90;0.80;95967.00;;;;5119632;27;20443;-59
2021/11/01 03:28:02;;;;;;;30.50;20.17;;;1.40;99.90;0.70;95958.00;;;;5109499;28;20954;-63
2021/11/01 03:30:55;;;;;;;34.63;20.93;;;1.40;99.90;0.10;95956.00;;;;5108315;28;20436;-62
2021/11/01 03:33:45;;;;;;;30.13;19.67;;;1.30;99.90;0.20;95950.00;;;;5108640;28;20420;-60
2021/11/01 03:36:37;;;;;;;32.03;19.83;;;1.10;99.90;0.30;95960.00;;;;5108432;27;20440;-56
2021/11/01 03:39:27;;;;;;;35.10;21.43;;;1.10;99.90;0.50;95963.00;;;;5108024;28;20947;-58
2021/11/01 03:42:17;;;;;;;31.83;21.30;;;1.10;99.90;0.50;95942.00;;;;5110176;27;20959;-60
2021/11/01 03:45:09;;;;;;;31.93;21.47;;;1.10;99.90;0.50;95946.00;;;;5108267;28;20425;-60
2021/11/01 03:48:02;;;;;;;29.80;20.53;;;1.20;99.90;0.30;95950.00;;;;5108464;28;20962;-63
2021/11/01 03:50:59;;;;;;;34.83;22.50;;;1.10;99.90;0.20;95945.00;;;;5108327;27;20424;-60
2021/11/01 03:53:50;;;;;;;28.30;20.83;;;1.10;99.90;0.40;95941.00;;;;5122118;27;20432;-63
2021/11/01 03:56:40;;;;;;;34.30;22.00;;;1.10;99.90;0.40;95940.00;;;;5108893;28;20428;-64
2021/11/01 03:59:30;;;;;;;34.43;22.40;;;1.10;99.90;0.40;95934.00;;;;5107759;28;20427;-63
2021/11/01 04:02:21;;;;;;;34.03;21.10;;;1.10;99.90;0.40;95927.00;;;;5106816;28;20448;-62
2021/11/01 04:05:10;;;;;;;31.87;20.87;;;1.00;99.90;0.20;95911.00;;;;5108046;28;21255;-59
2021/11/01 04:07:59;;;;;;;31.93;19.73;;;1.10;99.90;-0.20;95909.00;;;;5108929;28;20428;-62
2021/11/01 04:10:49;;;;;;;27.13;19.67;;;0.90;99.90;-0.20;95914.00;;;;5107117;27;20797;-59
2021/11/01 04:13:38;;;;;;;30.17;21.47;;;0.80;99.90;0.00;95905.00;;;;5124409;27;20416;-59
2021/11/01 04:16:35;;;;;;;31.63;19.90;;;0.90;99.90;0.00;95912.00;;;;5118793;27;20424;-62
2021/11/01 04:19:37;;;;;;;24.70;20.33;;;0.70;99.90;0.10;95904.00;;;;5107528;28;20420;-62
2021/11/01 04:22:29;;;;;;;24.10;19.27;;;0.70;99.90;0.10;95901.00;;;;5108728;27;20440;-59
2021/11/01 04:25:20;;;;;;;33.07;20.00;;;0.70;99.90;-0.10;95898.00;;;;5118806;27;20444;-62
2021/11/01 04:28:10;;;;;;;33.23;20.77;;;0.80;99.90;-0.20;95900.00;;;;5108816;28;20812;-63
2021/11/01 04:31:05;;;;;;;32.47;20.47;;;0.70;99.90;-0.20;95899.00;;;;5107525;28;20448;-63
2021/11/01 04:33:57;;;;;;;35.73;21.33;;;0.70;99.90;0.10;95901.00;;;;5108523;28;20451;-62
2021/11/01 04:36:48;;;;;;;32.23;21.57;;;0.70;99.90;0.30;95900.00;;;;5107406;28;20420;-61
2021/11/01 04:39:45;;;;;;;36.50;24.03;;;0.80;99.90;0.40;95896.00;;;;5119051;27;20420;-63
2021/11/01 04:43:28;;;;;;;38.60;22.50;;;0.90;99.90;0.50;95885.00;;;;5127665;27;20457;-61
2021/11/01 04:55:54;;;;;;;31.50;19.40;;;1.00;99.90;0.20;95892.00;;;;5127535;27;20448;-62
2021/11/01 04:58:47;;;;;;;29.70;19.73;;;1.00;99.90;0.40;95885.00;;;;5127550;27;20428;-61
2021/11/01 05:01:39;;;;;;;39.03;21.60;;;0.90;99.90;0.40;95884.00;;;;5123362;27;20816;-59
2021/11/01 05:04:31;;;;;;;30.70;20.33;;;1.00;99.90;0.50;95880.00;;;;5106942;28;20413;-63
2021/11/01 05:07:21;;;;;;;31.93;18.77;;;1.00;99.90;0.60;95872.00;;;;5107269;28;20413;-63
2021/11/01 05:10:13;;;;;;;36.17;21.47;;;1.10;99.90;0.70;95878.00;;;;5107833;28;20421;-62
2021/11/01 05:13:09;;;;;;;30.43;18.80;;;1.20;99.90;0.70;95864.00;;;;5107690;28;20441;-63
2021/11/01 05:16:04;;;;;;;31.00;20.43;;;1.20;99.90;0.70;95870.00;;;;5111989;27;20564;-59
2021/11/01 05:19:03;;;;;;;36.97;23.17;;;1.30;99.90;0.70;95868.00;;;;5119076;27;20440;-60
2021/11/01 05:21:59;;;;;;;29.53;20.10;;;1.30;99.90;0.50;95870.00;;;;5112317;27;20850;-62
2021/11/01 05:24:52;;;;;;;32.03;21.03;;;1.30;99.90;0.40;95870.00;;;;5114504;27;20462;-61
2021/11/01 05:27:47;;;;;;;29.50;18.50;;;1.30;99.90;0.40;95876.00;;;;5109151;27;20424;-60
2021/11/01 05:30:39;;;;;;;28.07;18.37;;;1.20;99.90;0.50;95871.00;;;;5105416;27;20428;-59
2021/11/01 05:33:47;;;;;;;28.87;18.57;;;1.20;99.90;0.50;95868.00;;;;5116536;27;20967;-56
2021/11/01 05:36:39;;;;;;;28.17;17.87;;;1.20;99.90;0.60;95864.00;;;;5111833;27;20468;-61
2021/11/01 05:39:28;;;;;;;35.27;21.53;;;1.20;99.90;0.60;95865.00;;;;5106941;28;20417;-60
2021/11/01 05:42:17;;;;;;;34.27;22.20;;;1.20;99.90;0.60;95864.00;;;;5106777;28;20445;-60
2021/11/01 05:45:07;;;;;;;33.87;21.40;;;1.30;99.90;0.60;95862.00;;;;5105634;28;20424;-60
2021/11/01 05:47:58;;;;;;;31.33;19.70;;;1.30;99.90;0.70;95859.00;;;;5106964;28;20940;-60
2021/11/01 05:50:47;;;;;;;37.87;23.23;;;1.40;99.90;0.50;95860.00;;;;5105489;28;20432;-59
2021/11/01 05:53:40;;;;;;;30.10;21.50;;;1.30;99.90;0.50;95861.00;;;;5106128;28;20425;-58
2021/11/01 05:56:36;;;;;;;31.07;20.70;;;1.30;99.90;0.60;95861.00;;;;5106362;28;20871;-58
2021/11/01 05:59:57;;;;;;;37.97;21.13;;;1.30;99.90;0.70;95864.00;;;;5106070;28;20429;-61
2021/11/01 06:02:57;;;;;;;38.47;21.03;;;1.30;99.90;0.70;95858.00;;;;5106615;27;20802;-58
2021/11/01 06:09:30;;;;;;;41.57;23.93;;;1.40;99.90;0.80;95870.00;;;;5043738;28;20628;-59
2021/11/01 06:15:27;;;;;;;48.77;21.83;;;1.50;99.90;0.80;95858.00;;;;5117660;27;20809;-60
2021/11/01 06:18:16;;;;;;;39.50;21.63;;;1.50;99.90;0.80;95868.00;;;;5115624;27;20931;-62
2021/11/01 06:21:06;;;;;;;40.00;23.17;;;1.50;99.90;1.00;95873.00;;;;5104809;28;20460;-64
2021/11/01 06:23:57;;;;;;;56.17;23.27;;;1.60;99.90;1.10;95864.00;;;;5105683;28;20463;-62
2021/11/01 06:26:47;;;;;;;39.93;22.83;;;1.60;99.90;1.10;95870.00;;;;5107453;27;20439;-63
2021/11/01 06:29:49;;;;;;;36.50;21.80;;;1.60;99.90;1.10;95863.00;;;;5104706;28;20428;-63
2021/11/01 06:32:42;;;;;;;36.40;22.10;;;1.70;99.90;1.00;95874.00;;;;5116991;27;20474;-60
2021/11/01 06:42:10;;;;;;;34.33;20.80;;;1.80;99.90;1.00;95872.00;;;;5118790;27;20443;-62
2021/11/01 06:45:29;;;;;;;41.07;20.77;;;1.80;99.90;1.20;95871.00;;;;5121780;27;20505;-62
2021/11/01 06:51:38;;;;;;;33.50;18.53;;;1.90;99.90;1.40;95873.00;;;;5105677;28;20445;-56
2021/11/01 06:57:39;;;;;;;46.33;22.40;;;2.20;99.90;1.60;95877.00;;;;5122021;27;20420;-61
2021/11/01 07:16:06;;;;;;;39.83;19.93;;;2.30;99.90;1.70;95864.00;;;;5123985;28;20482;-61
2021/11/01 07:19:00;;;;;;;34.30;20.50;;;2.40;99.90;1.90;95870.00;;;;5115974;28;20424;-63
2021/11/01 08:22:48;;;;;;;22.77;16.73;;;4.10;99.90;3.70;95823.00;;;;5125830;27;20440;-63
2021/11/01 08:29:01;;;;;;;23.37;16.67;;;4.20;99.90;4.00;95831.00;;;;5120111;27;20424;-59
2021/11/01 08:41:49;;;;;;;22.80;15.73;;;4.80;99.90;4.30;95809.00;;;;5110612;27;20567;-56
2021/11/01 08:44:57;;;;;;;20.80;16.73;;;4.90;99.90;4.50;95795.00;;;;5107375;28;20408;-56
2021/11/01 09:25:42;;;;;;;20.03;15.70;;;7.00;99.90;7.50;95782.00;;;;5114504;27;20213;-57
2021/11/01 09:28:35;;;;;;;18.13;14.67;;;7.30;99.90;7.70;95779.00;;;;5108577;27;20202;-60
2021/11/01 09:38:02;;;;;;;18.77;15.30;;;8.20;99.90;9.20;95774.00;;;;5122229;27;20604;-62
2021/11/01 09:41:01;;;;;;;22.17;14.43;;;8.50;99.90;9.50;95770.00;;;;5111054;27;20202;-58
2021/11/01 09:43:52;;;;;;;17.03;13.60;;;8.90;99.90;9.60;95773.00;;;;5123893;27;21060;-55
2021/11/01 09:46:41;;;;;;;20.77;13.30;;;9.20;99.90;9.50;95761.00;;;;5120425;27;20217;-57
2021/11/01 09:49:32;;;;;;;16.20;12.43;;;9.50;99.90;9.50;95761.00;;;;5119948;27;20209;-59
2021/11/01 09:52:21;;;;;;;18.13;13.40;;;9.70;99.90;9.20;95759.00;;;;5111317;27;20232;-63
2021/11/01 09:55:27;;;;;;;18.77;13.73;;;9.70;99.90;9.30;95752.00;;;;5116292;27;20202;-63
2021/11/01 10:01:29;;;;;;;16.73;12.67;;;9.80;99.90;9.90;95745.00;;;;5113694;27;20214;-59
2021/11/01 10:04:22;;;;;;;20.10;14.37;;;9.90;99.90;10.60;95745.00;;;;5114245;27;20206;-63
2021/11/01 10:07:22;;;;;;;16.60;12.30;;;10.20;99.90;11.20;95754.00;;;;5110363;27;20941;-61
2021/11/01 10:10:14;;;;;;;16.93;13.20;;;10.50;99.90;11.70;95750.00;;;;5113558;27;20201;-58
2021/11/01 10:13:13;;;;;;;16.07;13.40;;;10.90;99.90;11.80;95744.00;;;;5110715;27;20222;-57
2021/11/01 10:19:32;;;;;;;14.93;11.70;;;11.90;99.90;12.90;95739.00;;;;5032227;28;20197;-56
2021/11/01 10:22:24;;;;;;;14.73;12.73;;;12.50;99.90;12.00;95728.00;;;;5112872;27;20218;-56
2021/11/01 10:25:17;;;;;;;13.67;12.00;;;13.00;99.90;13.30;95733.00;;;;5115698;27;20661;-58
2021/11/01 10:28:06;;;;;;;14.27;12.10;;;13.20;99.90;13.80;95724.00;;;;5109552;27;20213;-58
2021/11/01 10:31:07;;;;;;;16.33;13.07;;;13.60;99.90;14.90;95722.00;;;;5114844;27;20207;-61
2021/11/01 10:34:07;;;;;;;13.53;12.13;;;14.00;99.90;15.40;95719.00;;;;5108689;27;20676;-60
2021/11/01 10:36:59;;;;;;;16.47;12.10;;;14.60;99.90;16.20;95715.00;;;;5108119;27;20267;-61
2021/11/01 10:39:56;;;;;;;21.90;16.33;;;15.10;99.90;16.30;95708.00;;;;5112664;27;20236;-60
2021/11/01 10:42:46;;;;;;;22.97;15.60;;;15.60;99.90;16.80;95706.00;;;;5116234;27;20224;-60
2021/11/01 10:46:12;;;;;;;16.87;14.10;;;16.00;99.90;16.90;95698.00;;;;5112189;27;20194;-55
2021/11/01 10:59:02;;;;;;;12.60;11.30;;;17.30;99.90;18.40;95684.00;;;;5117500;27;20700;-62
2021/11/01 11:11:28;;;;;;;11.97;9.93;;;18.40;93.40;18.10;95692.00;;;;5117809;27;20220;-59
2021/11/01 11:14:25;;;;;;;12.17;10.93;;;18.60;91.50;19.10;95685.00;;;;5114989;27;20564;-62
2021/11/01 11:17:21;;;;;;;14.30;12.20;;;18.70;91.40;19.90;95682.00;;;;5112353;27;20249;-63
2021/11/01 11:26:53;;;;;;;16.63;13.73;;;19.80;86.70;20.40;95693.00;;;;5047956;28;20200;-60
2021/11/01 11:33:13;;;;;;;19.13;15.00;;;20.40;83.40;20.20;95702.00;;;;5114839;27;20231;-60
2021/11/01 11:48:36;;;;;;;13.37;11.97;;;19.70;79.80;20.70;95658.00;;;;5106722;27;20198;-64
2021/11/01 11:51:28;;;;;;;11.80;10.47;;;20.10;78.10;20.80;95653.00;;;;5106898;28;20250;-58
2021/11/01 11:54:16;;;;;;;15.97;12.20;;;20.70;76.50;22.20;95656.00;;;;5110207;27;20210;-63
2021/11/01 11:57:19;;;;;;;13.47;10.97;;;21.30;75.50;22.40;95665.00;;;;5128226;27;20223;-62
2021/11/01 12:00:13;;;;;;;13.23;11.37;;;21.90;71.30;22.20;95661.00;;;;5117920;27;20227;-56
2021/11/01 12:03:14;;;;;;;11.67;10.20;;;22.40;67.00;21.90;95697.00;;;;5124673;27;20222;-58
2021/11/01 12:06:13;;;;;;;11.13;10.10;;;22.40;65.60;20.60;95691.00;;;;5119574;27;20201;-58
2021/11/01 12:09:09;;;;;;;16.13;12.60;;;21.90;64.80;19.80;95679.00;;;;5110735;27;20201;-62
2021/11/01 12:12:19;;;;;;;11.00;9.67;;;21.10;65.70;18.90;95672.00;;;;5114619;27;20220;-61
2021/11/01 12:18:30;;;;;;;11.57;10.33;;;19.60;68.50;16.60;95659.00;;;;5080059;28;20249;-58
2021/11/01 12:21:19;;;;;;;12.87;9.23;;;18.60;69.00;16.90;95661.00;;;;5117888;27;20225;-60
2021/11/01 12:24:09;;;;;;;10.53;9.40;;;17.90;70.50;17.40;95656.00;;;;5123906;27;20202;-61
2021/11/01 12:27:03;;;;;;;11.83;9.47;;;17.60;73.00;17.50;95629.00;;;;5114875;27;20205;-60
2021/11/01 12:29:52;;;;;;;13.83;9.83;;;17.50;74.60;17.40;95654.00;;;;5108231;27;20207;-60
2021/11/01 12:32:42;;;;;;;11.20;10.00;;;17.50;74.50;17.20;95654.00;;;;5118949;27;20222;-57
2021/11/01 12:35:32;;;;;;;10.97;9.07;;;17.40;75.50;17.10;95643.00;;;;5111830;27;20217;-58
2021/11/01 12:38:40;;;;;;;12.60;9.47;;;17.30;77.40;17.90;95658.00;;;;5118456;27;20717;-59
2021/11/01 12:41:39;;;;;;;11.17;9.77;;;17.30;78.80;17.10;95655.00;;;;5112899;27;20610;-61
2021/11/01 12:47:46;;;;;;;12.23;8.83;;;17.20;78.70;17.70;95639.00;;;;5095870;27;20583;-63
2021/11/01 12:59:56;;;;;;;10.87;8.07;;;18.40;77.90;22.10;95595.00;;;;5062358;28;20199;-59
2021/11/01 13:02:47;;;;;;;8.30;7.50;;;19.60;76.50;23.00;95598.00;;;;5097173;28;20786;-59
2021/11/01 13:05:45;;;;;;;8.17;7.37;;;20.90;73.30;24.20;95635.00;;;;5089378;28;20758;-59
2021/11/01 13:08:43;;;;;;;9.23;7.47;;;22.30;69.00;25.10;95604.00;;;;5086529;28;20206;-56
2021/11/01 13:11:43;;;;;;;8.80;7.40;;;23.40;66.10;24.50;95659.00;;;;5081575;28;20225;-59
2021/11/01 13:18:10;;;;;;;9.17;6.70;;;23.30;59.00;22.10;95616.00;;;;5041915;28;20222;-58
2021/11/01 13:21:08;;;;;;;8.77;7.03;;;22.40;60.10;21.20;95587.00;;;;5039877;28;20212;-55
2021/11/01 13:24:02;;;;;;;9.20;7.40;;;21.80;60.90;21.80;95634.00;;;;5099172;28;20580;-64
2021/11/01 13:27:02;;;;;;;10.50;7.30;;;21.60;62.20;22.00;95620.00;;;;5086917;28;20596;-61
2021/11/01 13:36:28;;;;;;;10.33;7.27;;;20.80;64.80;19.30;95624.00;;;;5080299;28;20218;-61
2021/11/01 13:39:25;;;;;;;7.60;6.80;;;20.20;65.10;19.00;95626.00;;;;5082521;28;20200;-64
2021/11/01 13:42:16;;;;;;;10.87;6.80;;;19.60;67.30;18.70;95624.00;;;;5075640;28;20231;-58
2021/11/01 13:45:11;;;;;;;9.33;7.60;;;19.20;69.00;18.10;95625.00;;;;5077540;28;20199;-61
2021/11/01 13:48:02;;;;;;;8.40;7.03;;;18.80;69.60;17.80;95620.00;;;;5083370;28;20211;-62
2021/11/01 13:51:04;;;;;;;8.47;7.57;;;18.40;71.20;17.30;95622.00;;;;5081723;28;20678;-64
2021/11/01 13:54:04;;;;;;;7.87;7.07;;;18.10;72.80;17.20;95619.00;;;;5082352;28;20203;-62
2021/11/01 13:56:55;;;;;;;7.97;6.40;;;17.80;72.50;17.20;95622.00;;;;5091846;28;20207;-64
2021/11/01 13:59:50;;;;;;;7.20;6.50;;;17.40;73.90;17.10;95613.00;;;;5084843;28;20211;-62
2021/11/01 14:03:01;;;;;;;7.30;6.37;;;17.20;75.30;16.80;95622.00;;;;5078325;28;20220;-62
2021/11/01 14:12:25;;;;;;;11.10;7.03;;;16.50;80.10;16.10;95603.00;;;;5082641;28;20219;-60
2021/11/01 14:15:30;;;;;;;8.57;6.50;;;16.30;81.30;15.90;95602.00;;;;5056680;28;20208;-63
2021/11/01 14:27:55;;;;;;;8.47;7.50;;;15.60;87.40;15.40;95594.00;;;;5057041;28;20227;-59
2021/11/01 14:34:31;;;;;;;12.90;8.37;;;15.40;90.50;15.30;95593.00;;;;5044168;28;20206;-62
2021/11/01 15:11:51;;;;;;;14.33;10.13;;;13.80;99.90;13.10;95580.00;;;;5065609;28;20235;-65
2021/11/01 15:14:51;;;;;;;17.03;9.77;;;13.60;99.90;12.90;95580.00;;;;5066506;28;20572;-64
2021/11/01 15:17:56;;;;;;;12.67;8.53;;;13.40;99.90;13.00;95586.00;;;;5066144;28;20204;-62
2021/11/01 15:20:52;;;;;;;13.30;10.10;;;13.30;99.90;13.10;95582.00;;;;5064125;28;20210;-58
2021/11/01 15:36:12;;;;;;;14.27;9.33;;;13.00;99.90;12.80;95571.00;;;;5073146;28;20214;-58
2021/11/01 15:39:21;;;;;;;12.17;9.50;;;12.90;99.90;12.70;95579.00;;;;5059354;28;20205;-59
2021/11/01 16:19:56;;;;;;;13.83;8.30;;;12.30;99.90;11.90;95549.00;;;;5069604;28;20196;-59
2021/11/01 16:22:45;;;;;;;20.40;9.33;;;12.20;99.90;11.80;95554.00;;;;5078467;28;20220;-57
2021/11/01 16:25:34;;;;;;;14.83;10.10;;;12.10;99.90;11.90;95552.00;;;;5072139;28;20200;-63
2021/11/01 16:28:24;;;;;;;12.17;9.00;;;12.10;99.90;12.00;95551.00;;;;5072599;28;20254;-62
2021/11/01 16:34:21;;;;;;;10.97;7.93;;;12.10;99.90;12.20;95552.00;;;;5077512;28;20203;-63
2021/11/01 16:37:24;;;;;;;14.13;9.03;;;12.10;99.90;12.10;95544.00;;;;5071350;28;20215;-57
2021/11/01 16:40:15;;;;;;;13.03;9.20;;;12.10;99.90;12.10;95550.00;;;;5073063;28;20191;-59
2021/11/01 16:43:12;;;;;;;12.77;9.13;;;12.10;99.90;12.10;95551.00;;;;5073197;28;20219;-60
2021/11/01 16:46:01;;;;;;;11.83;9.20;;;12.10;99.90;12.00;95549.00;;;;5067213;28;20211;-55
2021/11/01 16:48:51;;;;;;;12.50;9.73;;;12.10;99.90;12.00;95551.00;;;;5073168;28;20707;-60
2021/11/01 16:51:42;;;;;;;12.50;10.20;;;12.00;99.90;11.90;95543.00;;;;5071800;28;20603;-61
2021/11/01 16:54:34;;;;;;;14.33;9.47;;;12.00;99.90;11.70;95542.00;;;;5085306;28;20203;-57
2021/11/01 16:57:43;;;;;;;14.27;10.30;;;11.90;99.90;11.70;95536.00;;;;5075359;28;20214;-56
2021/11/01 17:00:35;;;;;;;12.60;8.73;;;11.90;99.90;11.80;95542.00;;;;5074325;28;20207;-59
2021/11/01 17:03:39;;;;;;;12.83;8.77;;;11.80;99.90;11.80;95540.00;;;;5072023;28;20204;-59
2021/11/01 17:06:38;;;;;;;16.50;9.43;;;11.80;99.90;11.70;95546.00;;;;5070435;28;20671;-57
2021/11/01 17:22:03;;;;;;;12.73;8.23;;;11.60;99.90;11.50;95545.00;;;;5073156;28;20238;-63
2021/11/01 17:24:57;;;;;;;9.63;8.03;;;11.60;99.90;11.40;95539.00;;;;5078500;28;20199;-58
2021/11/01 17:31:13;;;;;;;11.63;8.20;;;11.50;99.90;11.30;95546.00;;;;5100485;27;20647;-56
2021/11/01 17:37:18;;;;;;;17.83;12.87;;;11.40;99.90;11.20;95552.00;;;;5078849;28;20214;-57
2021/11/01 18:37:42;;;;;;;16.80;11.73;;;10.70;99.90;10.40;95468.00;;;;5069938;28;20207;-54
2021/11/01 18:53:00;;;;;;;17.37;12.83;;;10.60;99.90;10.30;95481.00;;;;5067442;28;20231;-58
2021/11/01 18:55:55;;;;;;;17.07;11.53;;;10.60;99.90;10.50;95476.00;;;;5054209;28;20215;-62
2021/11/01 18:58:44;;;;;;;15.37;11.60;;;10.60;99.90;10.60;95467.00;;;;5067644;28;20749;-62
2021/11/01 19:01:37;;;;;;;13.17;10.97;;;10.60;99.90;10.60;95474.00;;;;5066307;28;20224;-59
2021/11/01 19:04:34;;;;;;;15.33;12.00;;;10.60;99.90;10.50;95473.00;;;;5048478;28;20204;-61
2021/11/01 19:07:33;;;;;;;15.20;11.40;;;10.60;99.90;10.40;95483.00;;;;5075898;28;20261;-61
2021/11/01 19:10:57;;;;;;;14.27;12.07;;;10.60;99.90;10.50;95484.00;;;;5066994;28;20281;-62
2021/11/01 20:04:19;;;;;;;19.13;13.23;;;10.40;99.90;10.20;95446.00;;;;5065291;28;20285;-63
2021/11/01 20:08:06;;;;;;;16.37;13.40;;;10.40;99.90;10.20;95449.00;;;;5051844;28;20207;-59
2021/11/01 20:11:07;;;;;;;20.43;14.60;;;10.40;99.90;10.30;95443.00;;;;5046061;28;20240;-59
2021/11/01 20:14:22;;;;;;;19.67;14.47;;;10.40;99.90;10.30;95451.00;;;;5052715;28;20216;-62
2021/11/01 21:27:17;;;;;;;17.10;13.73;;;10.40;99.90;10.40;95420.00;;;;5065192;28;20207;-60
2021/11/01 21:30:10;;;;;;;18.13;12.90;;;10.50;99.90;10.40;95412.00;;;;5065476;28;20226;-58
2021/11/01 21:32:59;;;;;;;17.27;14.73;;;10.50;99.90;10.40;95403.00;;;;5064368;28;20243;-61
2021/11/01 21:35:51;;;;;;;17.47;12.80;;;10.50;99.90;10.50;95415.00;;;;5066383;28;20196;-60
2021/11/01 21:38:41;;;;;;;21.13;14.43;;;10.50;99.90;10.50;95412.00;;;;5064945;28;20682;-61
2021/11/01 21:41:30;;;;;;;21.60;13.97;;;10.50;99.90;10.40;95412.00;;;;5064443;28;20223;-63
2021/11/01 21:44:19;;;;;;;20.93;14.17;;;10.50;99.90;10.40;95409.00;;;;5060253;28;20206;-61
2021/11/01 21:47:09;;;;;;;19.80;16.23;;;10.50;99.90;10.30;95416.00;;;;5062937;28;20210;-59
2021/11/01 21:49:59;;;;;;;18.77;14.07;;;10.50;99.90;10.30;95411.00;;;;5063405;28;20200;-57
2021/11/01 21:52:48;;;;;;;21.33;13.77;;;10.50;99.90;10.40;95417.00;;;;5064411;28;20223;-56
2021/11/01 21:55:38;;;;;;;20.03;14.50;;;10.50;99.90;10.40;95421.00;;;;5065906;28;20203;-61
2021/11/01 21:58:37;;;;;;;15.93;13.83;;;10.50;99.90;10.50;95416.00;;;;5051406;28;20200;-62
2021/11/01 22:01:43;;;;;;;16.03;13.83;;;10.50;99.90;10.50;95418.00;;;;5044582;28;20209;-56
2021/11/01 22:17:20;;;;;;;20.17;15.93;;;10.80;99.90;10.90;95404.00;;;;5054912;28;20208;-63
2021/11/01 22:20:14;;;;;;;22.20;16.87;;;10.80;99.90;10.80;95390.00;;;;5063375;28;20203;-56